Oshawa Airport

CYOO | YOO

Oshawa , Ontario , Canada

Saturday, September 21st, 2019 | 07:31

Weather

CYOO 211100Z AUTO 35003KT 9SM CLR 13/13 A3019 RMK SLP225

Charts

No Charts Available

Gates

No Gates Available

Runways

2 Available

Events

No events for this airport


New event